Time;durP1;ratioP1;P1;durP2;ratioP2;P2;SDS_P1;SDS_P2;PMS_P1;PMS_P2;Temp;Humidity;BMP_temperature;BMP_pressure;BME280_temperature;BME280_humidity;BME280_pressure;Samples;Min_cycle;Max_cycle;Signal;HPM_P1;HPM_P2
2022/04/01 00:00:54;;;;;;;0.62;0.60;;;;;;;;;;1825821;77;26328;-35
2022/04/01 00:03:21;;;;;;;0.62;0.62;;;;;;;;;;1825797;77;25830;-37
2022/04/01 00:05:49;;;;;;;0.68;0.68;;;;;;;;;;1828643;77;26281;-35
2022/04/01 00:08:16;;;;;;;0.72;0.72;;;;;;;;;;1825877;77;26274;-36
2022/04/01 00:10:43;;;;;;;0.72;0.72;;;;;;;;;;1825635;77;26314;-36
2022/04/01 00:13:13;;;;;;;0.65;0.65;;;;;;;;;;1825671;77;26831;-36
2022/04/01 00:15:40;;;;;;;0.60;0.60;;;;;;;;;;1816682;77;26807;-36
2022/04/01 00:18:07;;;;;;;0.60;0.60;;;;;;;;;;1825047;78;26638;-36
2022/04/01 00:20:35;;;;;;;0.60;0.60;;;;;;;;;;1824923;77;26730;-36
2022/04/01 00:23:03;;;;;;;0.50;0.50;;;;;;;;;;1825633;78;26301;-39
2022/04/01 00:25:30;;;;;;;0.60;0.60;;;;;;;;;;1829119;77;26761;-37
2022/04/01 00:27:57;;;;;;;0.82;0.82;;;;;;;;;;1836436;77;27455;-38
2022/04/01 00:30:24;;;;;;;0.70;0.70;;;;;;;;;;1825820;78;26579;-41
2022/04/01 00:32:52;;;;;;;0.70;0.70;;;;;;;;;;1823773;78;26241;-37
2022/04/01 00:35:19;;;;;;;0.60;0.60;;;;;;;;;;1825254;77;26250;-36
2022/04/01 00:37:46;;;;;;;0.70;0.70;;;;;;;;;;1825715;77;26269;-37
2022/04/01 00:40:13;;;;;;;0.60;0.60;;;;;;;;;;1820491;78;26239;-35
2022/04/01 00:42:42;;;;;;;0.65;0.65;;;;;;;;;;1818504;79;26263;-38
2022/04/01 00:45:10;;;;;;;0.60;0.60;;;;;;;;;;1813563;78;26291;-36
2022/04/01 00:47:38;;;;;;;0.60;0.60;;;;;;;;;;1817260;79;26271;-36
2022/04/01 00:50:07;;;;;;;0.68;0.68;;;;;;;;;;1818617;79;26722;-37
2022/04/01 00:52:35;;;;;;;0.60;0.60;;;;;;;;;;1818225;79;25323;-36
2022/04/01 00:55:04;;;;;;;0.70;0.70;;;;;;;;;;1818661;79;26378;-37
2022/04/01 00:57:32;;;;;;;0.68;0.68;;;;;;;;;;1816782;77;26290;-35
2022/04/01 00:59:59;;;;;;;0.60;0.60;;;;;;;;;;1817371;79;26762;-37
2022/04/01 01:02:26;;;;;;;0.70;0.70;;;;;;;;;;1819024;79;26302;-37
2022/04/01 01:04:54;;;;;;;0.60;0.60;;;;;;;;;;1821090;77;26247;-36
2022/04/01 01:07:21;;;;;;;0.70;0.70;;;;;;;;;;1814117;77;26849;-37
2022/04/01 01:09:50;;;;;;;0.82;0.82;;;;;;;;;;1817442;77;26758;-38
2022/04/01 01:12:17;;;;;;;0.60;0.60;;;;;;;;;;1818461;79;26805;-36
2022/04/01 01:14:46;;;;;;;0.70;0.70;;;;;;;;;;1818438;79;26276;-36
2022/04/01 01:17:14;;;;;;;1.25;0.70;;;;;;;;;;1817112;77;26309;-36
2022/04/01 01:19:45;;;;;;;0.80;0.80;;;;;;;;;;1829035;77;27242;-36
2022/04/01 01:22:13;;;;;;;0.70;0.70;;;;;;;;;;1818459;78;26266;-39
2022/04/01 01:24:41;;;;;;;0.85;0.85;;;;;;;;;;1818614;77;26275;-36
2022/04/01 01:27:10;;;;;;;0.80;0.80;;;;;;;;;;1818109;79;26656;-36
2022/04/01 01:29:39;;;;;;;0.70;0.70;;;;;;;;;;1814092;77;26267;-36
2022/04/01 01:32:09;;;;;;;0.62;0.62;;;;;;;;;;1818589;79;26349;-37
2022/04/01 01:34:36;;;;;;;0.80;0.80;;;;;;;;;;1817313;78;25657;-36
2022/04/01 01:37:04;;;;;;;0.70;0.70;;;;;;;;;;1818154;79;26294;-36
2022/04/01 01:39:32;;;;;;;0.70;0.70;;;;;;;;;;1819601;78;26767;-36
2022/04/01 01:41:59;;;;;;;0.70;0.70;;;;;;;;;;1825476;78;26348;-39
2022/04/01 01:44:26;;;;;;;0.72;0.60;;;;;;;;;;1824421;78;26298;-37
2022/04/01 01:46:54;;;;;;;0.70;0.70;;;;;;;;;;1827971;77;26352;-36
2022/04/01 01:49:22;;;;;;;0.80;0.80;;;;;;;;;;1841781;77;26782;-37
2022/04/01 01:54:52;;;;;;;0.68;0.68;;;;;;;;;;1816670;78;26302;-36
2022/04/01 01:57:17;;;;;;;0.62;0.62;;;;;;;;;;1810361;77;26293;-36
2022/04/01 01:59:45;;;;;;;1.70;0.72;;;;;;;;;;1824970;77;26729;-36
2022/04/01 02:02:13;;;;;;;0.80;0.80;;;;;;;;;;1825982;77;26332;-36
2022/04/01 02:04:41;;;;;;;0.70;0.70;;;;;;;;;;1828798;77;26278;-37
2022/04/01 02:07:09;;;;;;;0.80;0.80;;;;;;;;;;1825088;78;26267;-36
2022/04/01 02:09:37;;;;;;;0.70;0.70;;;;;;;;;;1823558;76;26766;-37
2022/04/01 02:12:05;;;;;;;0.90;0.60;;;;;;;;;;1828602;77;26310;-35
2022/04/01 02:14:33;;;;;;;0.72;0.72;;;;;;;;;;1825294;77;26359;-37
2022/04/01 02:17:00;;;;;;;0.70;0.70;;;;;;;;;;1820426;77;26298;-39
2022/04/01 02:19:30;;;;;;;0.68;0.68;;;;;;;;;;1825567;78;26825;-38
2022/04/01 02:21:57;;;;;;;0.68;0.68;;;;;;;;;;1825516;78;26225;-36
2022/04/01 02:24:24;;;;;;;0.80;0.80;;;;;;;;;;1826017;78;26251;-36
2022/04/01 02:26:52;;;;;;;0.70;0.60;;;;;;;;;;1836239;77;26812;-36
2022/04/01 02:29:20;;;;;;;0.70;0.70;;;;;;;;;;1810884;78;26269;-35
2022/04/01 02:31:52;;;;;;;0.72;0.72;;;;;;;;;;1826088;77;26293;-36
2022/04/01 02:34:20;;;;;;;0.70;0.70;;;;;;;;;;1825544;78;26279;-36
2022/04/01 02:36:47;;;;;;;0.70;0.70;;;;;;;;;;1825588;77;26262;-37
2022/04/01 02:39:15;;;;;;;0.70;0.70;;;;;;;;;;1835554;77;26356;-36
2022/04/01 02:41:42;;;;;;;0.75;0.75;;;;;;;;;;1819137;78;26815;-36
2022/04/01 02:44:12;;;;;;;0.57;0.57;;;;;;;;;;1818273;79;26282;-38
2022/04/01 02:46:41;;;;;;;0.60;0.60;;;;;;;;;;1802789;79;26271;-38
2022/04/01 02:49:10;;;;;;;0.70;0.70;;;;;;;;;;1800121;78;27256;-36
2022/04/01 02:51:39;;;;;;;0.70;0.70;;;;;;;;;;1813252;79;26279;-36
2022/04/01 02:54:07;;;;;;;0.60;0.60;;;;;;;;;;1818613;79;26290;-39
2022/04/01 02:56:35;;;;;;;0.53;0.53;;;;;;;;;;1818448;79;26299;-36
2022/04/01 02:59:06;;;;;;;0.70;0.70;;;;;;;;;;1811297;79;26732;-36
2022/04/01 03:01:32;;;;;;;0.70;0.70;;;;;;;;;;1812551;77;26290;-36
2022/04/01 03:03:59;;;;;;;0.60;0.60;;;;;;;;;;1815633;77;26271;-36
2022/04/01 03:06:27;;;;;;;0.70;0.70;;;;;;;;;;1828490;77;26218;-36
2022/04/01 03:08:54;;;;;;;0.70;0.70;;;;;;;;;;1814664;78;26247;-37
2022/04/01 03:11:21;;;;;;;0.62;0.62;;;;;;;;;;1815340;77;26214;-39
2022/04/01 03:13:48;;;;;;;0.60;0.60;;;;;;;;;;1798654;79;26309;-35
2022/04/01 03:16:16;;;;;;;0.68;0.68;;;;;;;;;;1818454;79;26345;-36
2022/04/01 03:18:44;;;;;;;0.78;0.78;;;;;;;;;;1817562;79;26334;-36
2022/04/01 03:21:11;;;;;;;0.80;0.80;;;;;;;;;;1818267;79;26341;-36
2022/04/01 03:23:39;;;;;;;0.60;0.60;;;;;;;;;;1813635;78;26664;-35
2022/04/01 03:26:07;;;;;;;0.60;0.60;;;;;;;;;;1815971;79;26298;-36
2022/04/01 03:28:34;;;;;;;0.80;0.80;;;;;;;;;;1818169;79;26290;-36
2022/04/01 03:31:06;;;;;;;0.65;0.65;;;;;;;;;;1818234;79;26275;-37
2022/04/01 03:33:34;;;;;;;0.40;0.40;;;;;;;;;;1816277;78;26714;-36
2022/04/01 03:36:02;;;;;;;0.60;0.50;;;;;;;;;;1808544;79;26301;-37
2022/04/01 03:38:30;;;;;;;0.50;0.50;;;;;;;;;;1817758;79;26334;-36
2022/04/01 03:40:58;;;;;;;0.68;0.60;;;;;;;;;;1820361;78;26373;-38
2022/04/01 03:43:26;;;;;;;0.60;0.60;;;;;;;;;;1826513;77;26758;-36
2022/04/01 03:45:54;;;;;;;0.50;0.50;;;;;;;;;;1824259;78;26270;-38
2022/04/01 03:48:23;;;;;;;0.90;0.62;;;;;;;;;;1825259;78;26282;-37
2022/04/01 03:50:56;;;;;;;0.50;0.50;;;;;;;;;;1825428;78;26314;-37
2022/04/01 03:53:27;;;;;;;0.65;0.65;;;;;;;;;;1825191;78;26764;-37
2022/04/01 03:55:56;;;;;;;1.55;0.57;;;;;;;;;;1825345;77;26290;-36
2022/04/01 03:58:25;;;;;;;0.60;0.60;;;;;;;;;;1822895;77;26270;-37
2022/04/01 04:00:53;;;;;;;0.70;0.70;;;;;;;;;;1824866;78;26278;-36
2022/04/01 04:03:22;;;;;;;0.60;0.60;;;;;;;;;;1825502;78;26230;-36
2022/04/01 04:05:50;;;;;;;0.50;0.50;;;;;;;;;;1825373;77;26694;-36
2022/04/01 04:08:22;;;;;;;0.70;0.70;;;;;;;;;;1822789;77;26313;-37
2022/04/01 04:10:50;;;;;;;0.60;0.60;;;;;;;;;;1825855;77;26383;-37
2022/04/01 04:13:19;;;;;;;0.60;0.60;;;;;;;;;;1822851;78;26668;-37
2022/04/01 04:15:51;;;;;;;0.70;0.70;;;;;;;;;;1824714;77;26711;-36
2022/04/01 04:18:20;;;;;;;0.60;0.60;;;;;;;;;;1824737;77;26360;-38
2022/04/01 04:20:58;;;;;;;0.50;0.50;;;;;;;;;;1824255;78;26270;-37
2022/04/01 04:23:27;;;;;;;0.62;0.62;;;;;;;;;;1824339;77;26262;-37
2022/04/01 04:25:56;;;;;;;1.02;0.40;;;;;;;;;;1823394;77;26278;-37
2022/04/01 04:28:25;;;;;;;0.60;0.60;;;;;;;;;;1823469;77;26828;-36
2022/04/01 04:30:55;;;;;;;0.50;0.50;;;;;;;;;;1824649;77;26263;-36
2022/04/01 04:33:23;;;;;;;0.53;0.53;;;;;;;;;;1822870;77;26306;-36
2022/04/01 04:35:52;;;;;;;0.60;0.60;;;;;;;;;;1824462;77;26348;-37
2022/04/01 04:38:23;;;;;;;0.65;0.65;;;;;;;;;;1823902;78;26833;-37
2022/04/01 04:40:51;;;;;;;0.57;0.57;;;;;;;;;;1823712;77;26290;-37
2022/04/01 04:43:21;;;;;;;0.75;0.62;;;;;;;;;;1823462;77;26297;-39
2022/04/01 04:45:49;;;;;;;0.60;0.60;;;;;;;;;;1821953;77;26292;-36
2022/04/01 04:48:17;;;;;;;0.50;0.50;;;;;;;;;;1822117;77;27308;-36
2022/04/01 04:50:49;;;;;;;0.60;0.60;;;;;;;;;;1822143;77;26272;-38
2022/04/01 04:53:18;;;;;;;1.22;0.55;;;;;;;;;;1822066;77;26318;-37
2022/04/01 04:55:46;;;;;;;0.47;0.47;;;;;;;;;;1821587;77;26295;-37
2022/04/01 04:58:14;;;;;;;0.50;0.50;;;;;;;;;;1821179;78;26418;-37
2022/04/01 05:00:43;;;;;;;0.53;0.50;;;;;;;;;;1824327;77;26388;-36
2022/04/01 05:03:24;;;;;;;0.50;0.50;;;;;;;;;;1821806;77;26321;-36
2022/04/01 05:05:54;;;;;;;0.65;0.65;;;;;;;;;;1823996;77;26272;-35
2022/04/01 05:08:40;;;;;;;1.45;0.60;;;;;;;;;;1822298;77;26262;-36
2022/04/01 05:11:22;;;;;;;0.70;0.70;;;;;;;;;;1822128;77;27487;-38
2022/04/01 05:14:04;;;;;;;0.90;0.60;;;;;;;;;;1822088;77;26575;-37
2022/04/01 05:16:33;;;;;;;0.45;0.45;;;;;;;;;;1822448;77;26281;-37
2022/04/01 05:19:06;;;;;;;0.60;0.60;;;;;;;;;;1821884;77;26753;-37
2022/04/01 05:21:45;;;;;;;1.52;0.50;;;;;;;;;;1812112;77;27169;-37
2022/04/01 05:24:14;;;;;;;0.60;0.60;;;;;;;;;;1819823;77;26874;-37
2022/04/01 05:26:43;;;;;;;0.55;0.55;;;;;;;;;;1821961;77;27187;-38
2022/04/01 05:29:13;;;;;;;0.50;0.50;;;;;;;;;;1823041;77;26925;-37
2022/04/01 05:31:46;;;;;;;2.60;0.68;;;;;;;;;;1823042;77;26270;-39
2022/04/01 05:34:21;;;;;;;0.50;0.50;;;;;;;;;;1823282;77;26739;-36
2022/04/01 05:36:55;;;;;;;0.65;0.50;;;;;;;;;;1822538;77;26270;-37
2022/04/01 05:39:19;;;;;;;0.65;0.60;;;;;;;;;;1820569;77;26749;-34
2022/04/01 05:41:46;;;;;;;1.30;0.60;;;;;;;;;;1818544;78;26403;-38
2022/04/01 05:44:14;;;;;;;1.02;0.60;;;;;;;;;;1812318;79;26674;-37
2022/04/01 05:46:41;;;;;;;0.70;0.70;;;;;;;;;;1815063;77;26468;-36
2022/04/01 05:49:09;;;;;;;1.12;0.70;;;;;;;;;;1815270;77;26271;-37
2022/04/01 05:51:37;;;;;;;0.75;0.60;;;;;;;;;;1817612;77;26288;-38
2022/04/01 05:54:05;;;;;;;0.82;0.80;;;;;;;;;;1815624;79;26755;-38
2022/04/01 05:56:35;;;;;;;0.55;0.40;;;;;;;;;;1817341;77;26294;-37
2022/04/01 05:59:02;;;;;;;0.72;0.60;;;;;;;;;;1815008;77;26286;-41
2022/04/01 06:01:44;;;;;;;1.75;0.60;;;;;;;;;;1818868;77;26251;-37
2022/04/01 06:04:30;;;;;;;1.98;0.60;;;;;;;;;;1820674;77;26321;-39
2022/04/01 06:06:59;;;;;;;4.28;0.60;;;;;;;;;;1819252;77;26256;-38
2022/04/01 06:09:27;;;;;;;0.68;0.60;;;;;;;;;;1787324;78;26357;-38
2022/04/01 06:11:56;;;;;;;1.77;0.70;;;;;;;;;;1821109;77;26298;-39
2022/04/01 06:14:25;;;;;;;7.53;0.60;;;;;;;;;;1812119;78;26266;-37
2022/04/01 06:17:00;;;;;;;0.57;0.57;;;;;;;;;;1813979;79;26247;-36
2022/04/01 06:19:29;;;;;;;2.75;0.60;;;;;;;;;;1798465;79;26721;-37
2022/04/01 06:22:02;;;;;;;3.08;0.80;;;;;;;;;;1812699;77;26294;-37
2022/04/01 06:24:46;;;;;;;0.93;0.50;;;;;;;;;;1818439;77;26274;-38
2022/04/01 06:27:15;;;;;;;0.78;0.60;;;;;;;;;;1818493;79;26298;-39
2022/04/01 06:29:44;;;;;;;0.80;0.40;;;;;;;;;;1804726;77;26750;-39
2022/04/01 06:32:31;;;;;;;0.68;0.60;;;;;;;;;;1814723;77;26325;-37
2022/04/01 06:35:00;;;;;;;2.08;0.42;;;;;;;;;;1806890;77;26771;-37
2022/04/01 06:37:32;;;;;;;0.88;0.50;;;;;;;;;;1817370;77;26364;-36
2022/04/01 06:40:01;;;;;;;5.83;0.80;;;;;;;;;;1814392;77;26317;-37
2022/04/01 06:42:30;;;;;;;1.37;0.70;;;;;;;;;;1821019;77;26345;-37
2022/04/01 06:44:58;;;;;;;0.90;0.68;;;;;;;;;;1825454;78;26707;-37
2022/04/01 06:47:25;;;;;;;5.20;0.80;;;;;;;;;;1824729;77;26216;-37
2022/04/01 06:49:52;;;;;;;2.98;0.68;;;;;;;;;;1834975;77;26309;-35
2022/04/01 06:52:20;;;;;;;0.65;0.65;;;;;;;;;;1826196;77;26274;-37
2022/04/01 06:54:47;;;;;;;2.67;0.50;;;;;;;;;;1825428;77;26305;-40
2022/04/01 06:57:15;;;;;;;0.62;0.55;;;;;;;;;;1824668;78;26286;-38
2022/04/01 06:59:42;;;;;;;2.15;0.60;;;;;;;;;;1825675;78;26286;-36
2022/04/01 07:02:09;;;;;;;2.62;0.82;;;;;;;;;;1824944;77;26346;-37
2022/04/01 07:04:36;;;;;;;3.55;0.90;;;;;;;;;;1825597;77;26298;-38
2022/04/01 07:07:04;;;;;;;3.15;0.72;;;;;;;;;;1821078;77;26903;-38
2022/04/01 07:09:32;;;;;;;2.85;0.70;;;;;;;;;;1823982;77;26831;-36
2022/04/01 07:12:01;;;;;;;1.82;0.60;;;;;;;;;;1825004;78;26290;-38
2022/04/01 07:14:31;;;;;;;1.77;0.70;;;;;;;;;;1825222;78;26274;-36
2022/04/01 07:16:58;;;;;;;3.22;0.78;;;;;;;;;;1825004;78;26353;-36
2022/04/01 07:19:26;;;;;;;0.95;0.75;;;;;;;;;;1825230;77;26267;-38
2022/04/01 07:21:53;;;;;;;0.50;0.50;;;;;;;;;;1838375;77;27412;-36
2022/04/01 07:24:21;;;;;;;0.75;0.70;;;;;;;;;;1822176;77;26301;-36
2022/04/01 07:26:48;;;;;;;2.15;0.50;;;;;;;;;;1829702;77;26366;-37
2022/04/01 07:29:15;;;;;;;2.02;0.70;;;;;;;;;;1823531;77;26271;-37
2022/04/01 07:34:36;;;;;;;0.53;0.53;;;;;;;;;;1823468;77;26243;-36
2022/04/01 07:37:05;;;;;;;0.60;0.60;;;;;;;;;;1814366;77;26363;-36
2022/04/01 07:39:33;;;;;;;0.65;0.65;;;;;;;;;;1828976;78;26255;-36
2022/04/01 07:42:00;;;;;;;0.60;0.60;;;;;;;;;;1824239;77;26648;-37
2022/04/01 07:44:27;;;;;;;0.82;0.82;;;;;;;;;;1825839;77;26364;-37
2022/04/01 07:46:55;;;;;;;1.05;0.98;;;;;;;;;;1825462;77;26295;-39
2022/04/01 07:49:22;;;;;;;0.95;0.68;;;;;;;;;;1825144;77;26316;-36
2022/04/01 07:51:50;;;;;;;0.80;0.80;;;;;;;;;;1826162;77;26270;-36
2022/04/01 07:54:17;;;;;;;1.07;0.62;;;;;;;;;;1825952;77;26352;-36
2022/04/01 07:56:45;;;;;;;1.72;0.75;;;;;;;;;;1824471;78;26290;-35
2022/04/01 07:59:15;;;;;;;0.80;0.70;;;;;;;;;;1829003;77;26640;-36
2022/04/01 08:01:43;;;;;;;1.37;0.65;;;;;;;;;;1825198;77;26289;-36
2022/04/01 08:04:10;;;;;;;1.27;0.50;;;;;;;;;;1825870;77;26305;-39
2022/04/01 08:06:37;;;;;;;0.65;0.65;;;;;;;;;;1826774;77;26416;-36
2022/04/01 08:09:04;;;;;;;0.70;0.65;;;;;;;;;;1824928;77;26376;-36
2022/04/01 08:11:33;;;;;;;3.67;0.70;;;;;;;;;;1829078;77;26286;-39
2022/04/01 08:14:00;;;;;;;2.45;0.70;;;;;;;;;;1824328;78;26643;-36
2022/04/01 08:16:28;;;;;;;0.80;0.80;;;;;;;;;;1828134;77;26211;-37
2022/04/01 08:18:55;;;;;;;1.50;0.60;;;;;;;;;;1825841;78;26258;-36
2022/04/01 08:21:22;;;;;;;0.50;0.50;;;;;;;;;;1826153;78;26267;-37
2022/04/01 08:23:50;;;;;;;1.72;0.60;;;;;;;;;;1821416;77;26348;-38
2022/04/01 08:26:17;;;;;;;0.95;0.80;;;;;;;;;;1825005;77;26267;-36
2022/04/01 08:28:44;;;;;;;2.15;0.50;;;;;;;;;;1826000;77;26336;-39
2022/04/01 08:31:12;;;;;;;3.87;0.50;;;;;;;;;;1825216;77;26288;-36
2022/04/01 08:33:39;;;;;;;1.57;0.88;;;;;;;;;;1829121;77;26752;-36
2022/04/01 08:36:06;;;;;;;0.42;0.40;;;;;;;;;;1822100;77;26208;-36
2022/04/01 08:38:34;;;;;;;1.37;0.50;;;;;;;;;;1823832;77;26262;-39
2022/04/01 08:41:01;;;;;;;1.65;0.50;;;;;;;;;;1825944;78;26274;-35
2022/04/01 08:43:30;;;;;;;0.93;0.30;;;;;;;;;;1822128;77;26731;-36
2022/04/01 08:46:02;;;;;;;0.65;0.35;;;;;;;;;;1817551;79;26294;-37
2022/04/01 08:48:31;;;;;;;0.50;0.50;;;;;;;;;;1818044;79;26283;-38
2022/04/01 08:50:58;;;;;;;0.60;0.60;;;;;;;;;;1817069;77;26580;-36
2022/04/01 08:53:26;;;;;;;2.52;0.40;;;;;;;;;;1819902;77;26334;-37
2022/04/01 08:55:55;;;;;;;2.58;0.50;;;;;;;;;;1818137;77;26286;-36
2022/04/01 08:58:24;;;;;;;3.20;0.68;;;;;;;;;;1818510;77;26388;-36
2022/04/01 09:00:52;;;;;;;3.10;0.45;;;;;;;;;;1816740;77;26763;-36
2022/04/01 09:03:21;;;;;;;4.12;0.82;;;;;;;;;;1815339;77;26354;-36
2022/04/01 09:05:53;;;;;;;2.72;0.53;;;;;;;;;;1820281;77;26310;-36
2022/04/01 09:08:24;;;;;;;1.45;0.50;;;;;;;;;;1814739;77;26669;-36
2022/04/01 09:10:53;;;;;;;1.17;0.30;;;;;;;;;;1815234;77;26302;-38
2022/04/01 09:13:21;;;;;;;0.53;0.50;;;;;;;;;;1816971;78;26270;-35
2022/04/01 09:15:48;;;;;;;1.98;0.33;;;;;;;;;;1818272;77;26768;-37
2022/04/01 09:18:17;;;;;;;2.10;0.85;;;;;;;;;;1817785;77;26797;-37
2022/04/01 09:20:45;;;;;;;0.33;0.33;;;;;;;;;;1808711;79;26282;-37
2022/04/01 09:23:13;;;;;;;0.40;0.37;;;;;;;;;;1819711;77;26268;-38
2022/04/01 09:25:41;;;;;;;0.40;0.40;;;;;;;;;;1817554;77;26254;-39
2022/04/01 09:28:09;;;;;;;0.30;0.30;;;;;;;;;;1817657;77;26286;-38
2022/04/01 09:30:36;;;;;;;0.40;0.40;;;;;;;;;;1818611;79;26356;-37
2022/04/01 09:33:04;;;;;;;0.28;0.28;;;;;;;;;;1818767;79;26725;-37
2022/04/01 09:35:32;;;;;;;0.35;0.35;;;;;;;;;;1813299;77;26293;-36
2022/04/01 09:38:09;;;;;;;0.30;0.30;;;;;;;;;;1819880;77;26714;-37
2022/04/01 09:40:35;;;;;;;0.20;0.20;;;;;;;;;;1817710;77;26262;-38
2022/04/01 09:43:03;;;;;;;0.20;0.20;;;;;;;;;;1815765;77;26617;-36
2022/04/01 09:45:32;;;;;;;0.35;0.30;;;;;;;;;;1815509;77;26705;-37
2022/04/01 09:48:01;;;;;;;1.80;0.50;;;;;;;;;;1815488;77;26841;-36
2022/04/01 09:50:38;;;;;;;0.20;0.20;;;;;;;;;;1818039;77;26347;-37
2022/04/01 09:53:07;;;;;;;0.20;0.20;;;;;;;;;;1818106;77;26278;-37
2022/04/01 09:55:36;;;;;;;0.35;0.33;;;;;;;;;;1814177;78;26275;-38
2022/04/01 09:58:04;;;;;;;3.20;0.42;;;;;;;;;;1817566;78;26298;-36
2022/04/01 10:00:32;;;;;;;1.00;0.45;;;;;;;;;;1803146;78;28205;-37
2022/04/01 10:03:00;;;;;;;1.37;0.37;;;;;;;;;;1817537;77;26653;-36
2022/04/01 10:05:27;;;;;;;0.60;0.57;;;;;;;;;;1820258;77;26376;-38
2022/04/01 10:07:54;;;;;;;2.47;0.37;;;;;;;;;;1825890;77;26287;-36
2022/04/01 10:10:22;;;;;;;3.35;0.20;;;;;;;;;;1816514;77;26767;-38
2022/04/01 10:12:50;;;;;;;0.40;0.25;;;;;;;;;;1816280;79;26301;-37
2022/04/01 10:15:18;;;;;;;2.08;0.62;;;;;;;;;;1816188;77;26302;-36
2022/04/01 10:17:46;;;;;;;0.40;0.40;;;;;;;;;;1817724;79;26780;-38
2022/04/01 10:20:14;;;;;;;0.20;0.20;;;;;;;;;;1815461;77;26382;-36
2022/04/01 10:22:42;;;;;;;0.55;0.20;;;;;;;;;;1820338;77;26286;-36
2022/04/01 10:25:17;;;;;;;0.20;0.20;;;;;;;;;;1817515;79;26612;-39
2022/04/01 10:27:52;;;;;;;0.57;0.30;;;;;;;;;;1818171;77;26320;-39
2022/04/01 10:30:21;;;;;;;0.37;0.20;;;;;;;;;;1817749;77;26220;-37
2022/04/01 10:32:48;;;;;;;2.92;0.30;;;;;;;;;;1817702;77;26310;-36
2022/04/01 10:35:32;;;;;;;1.10;0.37;;;;;;;;;;1817839;77;26281;-36
2022/04/01 10:38:06;;;;;;;0.20;0.20;;;;;;;;;;1819267;77;26326;-37
2022/04/01 10:40:35;;;;;;;0.30;0.30;;;;;;;;;;1816955;78;26932;-36
2022/04/01 10:43:12;;;;;;;0.80;0.23;;;;;;;;;;1818283;79;26317;-36
2022/04/01 10:45:41;;;;;;;0.20;0.20;;;;;;;;;;1816862;77;26295;-37
2022/04/01 10:53:59;;;;;;;0.40;0.40;;;;;;;;;;1815138;77;26305;-37
2022/04/01 10:56:28;;;;;;;0.30;0.30;;;;;;;;;;1815584;77;26349;-36
2022/04/01 10:59:02;;;;;;;0.30;0.30;;;;;;;;;;1819768;77;26821;-36
2022/04/01 11:01:30;;;;;;;0.20;0.20;;;;;;;;;;1819224;77;26267;-37
2022/04/01 11:04:04;;;;;;;0.20;0.20;;;;;;;;;;1819311;77;26337;-35
2022/04/01 11:06:32;;;;;;;0.20;0.20;;;;;;;;;;1799226;77;26319;-36
2022/04/01 11:09:02;;;;;;;0.47;0.30;;;;;;;;;;1817390;77;26438;-36
2022/04/01 11:11:28;;;;;;;0.30;0.30;;;;;;;;;;1815698;77;26290;-36
2022/04/01 11:13:57;;;;;;;0.20;0.20;;;;;;;;;;1817201;77;26260;-35
2022/04/01 11:16:25;;;;;;;0.30;0.30;;;;;;;;;;1820169;77;26219;-36
2022/04/01 11:19:12;;;;;;;0.35;0.35;;;;;;;;;;1812981;77;26283;-36
2022/04/01 11:21:40;;;;;;;0.30;0.30;;;;;;;;;;1822228;77;26292;-37
2022/04/01 11:24:23;;;;;;;0.20;0.20;;;;;;;;;;1823572;77;26291;-35
2022/04/01 11:26:51;;;;;;;0.30;0.25;;;;;;;;;;1817870;77;26660;-36
2022/04/01 11:29:20;;;;;;;0.30;0.30;;;;;;;;;;1819592;77;26211;-36
2022/04/01 11:31:47;;;;;;;0.33;0.30;;;;;;;;;;1806380;79;26348;-36
2022/04/01 11:34:15;;;;;;;0.10;0.10;;;;;;;;;;1812798;77;26649;-37
2022/04/01 11:36:42;;;;;;;1.77;0.40;;;;;;;;;;1812249;77;26259;-38
2022/04/01 11:39:11;;;;;;;0.20;0.20;;;;;;;;;;1817237;78;26740;-35
2022/04/01 11:41:46;;;;;;;1.32;0.28;;;;;;;;;;1826000;77;26771;-36
2022/04/01 11:44:15;;;;;;;0.30;0.30;;;;;;;;;;1815790;78;26299;-35
2022/04/01 11:46:44;;;;;;;0.30;0.30;;;;;;;;;;1817343;79;26762;-36
2022/04/01 11:49:11;;;;;;;0.13;0.13;;;;;;;;;;1803912;78;26282;-36
2022/04/01 11:51:39;;;;;;;0.30;0.30;;;;;;;;;;1809817;77;26351;-36
2022/04/01 11:54:09;;;;;;;0.20;0.20;;;;;;;;;;1817256;77;26268;-36
2022/04/01 11:56:36;;;;;;;0.40;0.30;;;;;;;;;;1804487;77;26294;-36
2022/04/01 11:59:05;;;;;;;0.30;0.30;;;;;;;;;;1818459;77;26340;-37
2022/04/01 12:01:33;;;;;;;0.20;0.20;;;;;;;;;;1817783;78;26625;-36
2022/04/01 12:04:04;;;;;;;0.33;0.33;;;;;;;;;;1818883;77;26341;-37
2022/04/01 12:09:17;;;;;;;0.25;0.25;;;;;;;;;;1812542;77;26348;-36
2022/04/01 12:11:46;;;;;;;0.20;0.20;;;;;;;;;;1818660;77;26251;-36
2022/04/01 12:14:14;;;;;;;0.30;0.30;;;;;;;;;;1813640;77;26362;-38
2022/04/01 12:16:43;;;;;;;0.20;0.20;;;;;;;;;;1813761;77;26291;-37
2022/04/01 12:19:20;;;;;;;0.33;0.33;;;;;;;;;;1818042;79;26262;-36
2022/04/01 12:21:56;;;;;;;0.30;0.30;;;;;;;;;;1817902;79;26298;-36
2022/04/01 12:24:24;;;;;;;0.30;0.30;;;;;;;;;;1822412;77;26311;-36
2022/04/01 12:26:52;;;;;;;0.30;0.30;;;;;;;;;;1812024;77;26365;-37
2022/04/01 12:29:21;;;;;;;0.25;0.25;;;;;;;;;;1804579;77;26302;-38
2022/04/01 12:31:52;;;;;;;0.30;0.30;;;;;;;;;;1818151;79;26302;-36
2022/04/01 12:34:20;;;;;;;0.20;0.20;;;;;;;;;;1817988;79;26231;-36
2022/04/01 12:36:54;;;;;;;0.20;0.20;;;;;;;;;;1817212;79;27500;-37
2022/04/01 12:39:22;;;;;;;0.10;0.10;;;;;;;;;;1814818;77;26349;-36
2022/04/01 12:41:50;;;;;;;0.20;0.20;;;;;;;;;;1815932;77;26251;-36
2022/04/01 12:44:18;;;;;;;0.37;0.37;;;;;;;;;;1822143;77;26270;-34
2022/04/01 12:46:49;;;;;;;1.00;0.30;;;;;;;;;;1829373;77;26753;-38
2022/04/01 12:49:21;;;;;;;0.35;0.35;;;;;;;;;;1818729;77;26357;-38
2022/04/01 12:51:57;;;;;;;0.25;0.25;;;;;;;;;;1829548;77;26641;-37
2022/04/01 12:54:31;;;;;;;0.20;0.20;;;;;;;;;;1832138;77;26291;-36
2022/04/01 12:57:00;;;;;;;0.20;0.20;;;;;;;;;;1835889;77;26273;-37
2022/04/01 12:59:27;;;;;;;0.30;0.30;;;;;;;;;;1832039;78;26290;-36
2022/04/01 13:02:03;;;;;;;0.20;0.20;;;;;;;;;;1849842;77;26341;-37
2022/04/01 13:04:32;;;;;;;0.30;0.30;;;;;;;;;;1825330;78;26273;-38
2022/04/01 13:07:09;;;;;;;0.25;0.25;;;;;;;;;;1837238;77;26290;-36
2022/04/01 13:09:44;;;;;;;0.20;0.20;;;;;;;;;;1828197;77;26369;-37
2022/04/01 13:12:11;;;;;;;0.20;0.20;;;;;;;;;;1825660;77;26285;-37
2022/04/01 13:14:39;;;;;;;0.20;0.20;;;;;;;;;;1823110;77;26767;-38
2022/04/01 13:17:14;;;;;;;0.30;0.30;;;;;;;;;;1830156;77;26225;-37
2022/04/01 13:19:43;;;;;;;0.40;0.40;;;;;;;;;;1796316;78;27099;-38
2022/04/01 13:22:10;;;;;;;0.30;0.30;;;;;;;;;;1777235;79;26737;-36
2022/04/01 13:24:39;;;;;;;0.30;0.30;;;;;;;;;;1766445;80;26281;-37
2022/04/01 13:27:08;;;;;;;0.30;0.30;;;;;;;;;;1766107;79;26408;-37
2022/04/01 13:29:36;;;;;;;0.37;0.37;;;;;;;;;;1789789;79;26289;-38
2022/04/01 13:32:03;;;;;;;0.30;0.30;;;;;;;;;;1797784;78;26977;-36
2022/04/01 13:34:31;;;;;;;0.20;0.20;;;;;;;;;;1791560;80;26352;-37
2022/04/01 13:36:59;;;;;;;0.40;0.40;;;;;;;;;;1795537;79;26790;-36
2022/04/01 13:39:28;;;;;;;0.40;0.40;;;;;;;;;;1791614;79;26270;-36
2022/04/01 13:42:01;;;;;;;0.10;0.10;;;;;;;;;;1793109;79;26300;-36
2022/04/01 13:44:27;;;;;;;0.20;0.20;;;;;;;;;;1791381;79;27091;-39
2022/04/01 13:46:54;;;;;;;0.23;0.23;;;;;;;;;;1808178;79;26898;-44
2022/04/01 13:49:22;;;;;;;0.23;0.23;;;;;;;;;;1800465;79;26285;-35
2022/04/01 13:51:50;;;;;;;0.30;0.30;;;;;;;;;;1791811;79;26666;-36
2022/04/01 13:54:17;;;;;;;0.20;0.20;;;;;;;;;;1775008;80;26281;-36
2022/04/01 13:56:50;;;;;;;0.68;0.35;;;;;;;;;;1781286;80;27384;-38
2022/04/01 13:59:14;;;;;;;0.20;0.20;;;;;;;;;;1790533;80;26363;-36
2022/04/01 14:01:41;;;;;;;0.42;0.42;;;;;;;;;;1769534;80;26214;-37
2022/04/01 14:04:08;;;;;;;0.30;0.30;;;;;;;;;;1769137;79;26328;-36
2022/04/01 14:06:36;;;;;;;0.37;0.37;;;;;;;;;;1809315;79;26289;-36
2022/04/01 14:09:04;;;;;;;0.30;0.30;;;;;;;;;;1789353;79;26356;-35
2022/04/01 14:11:34;;;;;;;0.28;0.28;;;;;;;;;;1789256;79;26711;-37
2022/04/01 14:14:01;;;;;;;0.30;0.30;;;;;;;;;;1788747;79;26353;-36
2022/04/01 14:16:28;;;;;;;0.30;0.30;;;;;;;;;;1789945;80;26301;-36
2022/04/01 14:18:56;;;;;;;0.40;0.40;;;;;;;;;;1779416;80;26308;-35
2022/04/01 14:21:23;;;;;;;0.40;0.40;;;;;;;;;;1777611;79;26647;-36
2022/04/01 14:23:50;;;;;;;0.30;0.30;;;;;;;;;;1803762;79;26289;-35
2022/04/01 14:26:18;;;;;;;0.15;0.15;;;;;;;;;;1800490;78;26277;-38
2022/04/01 14:28:45;;;;;;;0.40;0.40;;;;;;;;;;1769057;80;26689;-36
2022/04/01 14:31:14;;;;;;;0.30;0.30;;;;;;;;;;1779338;79;26362;-36
2022/04/01 14:33:41;;;;;;;0.20;0.20;;;;;;;;;;1794083;79;26289;-36
2022/04/01 14:36:09;;;;;;;0.35;0.35;;;;;;;;;;1774319;79;26251;-39
2022/04/01 14:38:36;;;;;;;0.40;0.40;;;;;;;;;;1775817;80;26376;-36
2022/04/01 14:41:03;;;;;;;0.30;0.30;;;;;;;;;;1799824;79;26850;-36
2022/04/01 14:43:31;;;;;;;0.50;0.50;;;;;;;;;;1784071;79;26265;-36
2022/04/01 14:45:58;;;;;;;0.65;0.30;;;;;;;;;;1766013;80;26421;-35
2022/04/01 14:48:26;;;;;;;0.50;0.50;;;;;;;;;;1786956;79;26275;-36
2022/04/01 14:50:53;;;;;;;0.40;0.40;;;;;;;;;;1785677;80;26354;-36
2022/04/01 14:53:21;;;;;;;2.55;0.35;;;;;;;;;;1799035;79;26349;-36
2022/04/01 14:55:48;;;;;;;0.40;0.40;;;;;;;;;;1769412;80;26253;-36
2022/04/01 14:58:16;;;;;;;0.37;0.37;;;;;;;;;;1770983;79;26359;-36
2022/04/01 15:00:44;;;;;;;0.70;0.47;;;;;;;;;;1771258;80;26310;-36
2022/04/01 15:03:12;;;;;;;0.90;0.47;;;;;;;;;;1794779;79;26886;-36
2022/04/01 15:05:39;;;;;;;0.35;0.35;;;;;;;;;;1825651;77;26282;-37
2022/04/01 15:08:06;;;;;;;3.85;0.95;;;;;;;;;;1823189;78;26295;-36